Airfield :
LOGIN :

Register | Disclaimer

   EN    FR    IT 

 










Legend :    VFR   Marginal VFR   IFR   Intensive IFR   Very Intensive IFR
Visi :
Ceiling :
>= 8 km
>= 3000ft
5 to 8 km
1000 to 3000 ft
1500m to 5 km
500 to 1000 ft
800 to 1500m
200 to 500 ft
< 800m
< 200 ft
Symbols :   Thunderstorms  Fog  Heavy snow  Heavy precipitations  Wind > 20 kt
SIGMETs :     Misc.  Thunderstorms  Icing  Turbulence  Mountain Waves  Volcanic Ashes







- Airport Elevation : 1465 ft


LSMP - Payerne

CURRENT METAR :
  • 241150Z 27007KT 230V320 CAVOK 20/07 Q1002 RMK BLU

EXPIRED METARs :
  • 241120Z 28007KT 250V320 CAVOK 20/09 Q1002 RMK BLU
  • 241050Z VRB03KT 9999 FEW120 20/08 Q1002 RMK BLU+
  • 241020Z VRB02KT 9999 FEW140 20/10 Q1002 RMK BLU+
  • 240950Z VRB02KT CAVOK 18/09 Q1002 RMK BLU
  • 240920Z VRB02KT CAVOK 17/09 Q1003 RMK BLU

Expired Forecast.
No reported NOTAMs for that airfield.
1 SIGMET reported for the Switzerland FIR (LSAS) :
 
Severe turbulence
LSAS SIGMET 1 VALID 241100/241500 LSZH
LSAS SWITZERLAND FIR SEV TURB FCST WI N4716 E00932 - N4657 E00959 - N4627 E00824 - N4600 E00812 - N4540 E00654 - N4616 E00627 - N4716 E00932 - N4716 E00932 SFC/FL140 STNR INTSF=



MET'MAP, your aeronautical weather chart ! - Copyright ORBIFLY December 2007 - Disclaimer

ORBIFLY MET'MAP TEAM :

Programming & Development : Alexandra Zaïnal
Concept & Development : Baudouin d'Aumeries
Co-Development & Prog : Marc-Olivier Méhu
Technical & hardware support : Manuel Goepfert

Contact : metmap@orbifly.com




SOURCES & CREDITS :

   NOAA